createdAt,value
2019-05-09T00:00:34.462Z,12.01
2019-05-09T00:03:00.526Z,11.87
2019-05-09T00:05:26.663Z,11.90
2019-05-09T00:07:53.258Z,11.93
2019-05-09T00:10:19.334Z,12.01
2019-05-09T00:12:45.302Z,11.81
2019-05-09T00:15:13.502Z,11.68
2019-05-09T00:17:39.361Z,11.54
2019-05-09T00:20:05.603Z,11.41
2019-05-09T00:22:33.241Z,11.22
2019-05-09T00:24:59.214Z,11.25
2019-05-09T00:27:25.269Z,11.29
2019-05-09T00:29:53.149Z,11.05
2019-05-09T00:32:19.370Z,10.84
2019-05-09T00:34:45.372Z,10.96
2019-05-09T00:37:13.414Z,11.34
2019-05-09T00:39:39.251Z,11.28
2019-05-09T00:42:05.441Z,11.12
2019-05-09T00:44:31.341Z,11.03
2019-05-09T00:46:57.469Z,11.08
2019-05-09T00:49:23.738Z,11.04
2019-05-09T00:51:49.678Z,11.17
2019-05-09T00:54:15.691Z,11.24
2019-05-09T00:56:43.641Z,11.38
2019-05-09T00:59:10.711Z,11.51
2019-05-09T01:01:36.667Z,11.65
2019-05-09T01:04:04.360Z,11.83
2019-05-09T01:06:30.594Z,11.83
2019-05-09T01:08:56.493Z,11.08
2019-05-09T01:11:24.466Z,12.06
2019-05-09T01:13:51.237Z,12.05
2019-05-09T01:16:17.174Z,11.91
2019-05-09T01:18:43.840Z,11.84
2019-05-09T01:21:09.953Z,11.81
2019-05-09T01:23:35.982Z,11.72
2019-05-09T01:26:03.838Z,11.58
2019-05-09T01:28:29.842Z,11.54
2019-05-09T01:30:55.778Z,11.51
2019-05-09T01:33:24.053Z,11.33
2019-05-09T01:35:49.513Z,11.19
2019-05-09T01:38:15.472Z,11.37
2019-05-09T01:40:43.734Z,11.44
2019-05-09T01:43:09.337Z,11.61
2019-05-09T01:45:35.467Z,11.64
2019-05-09T01:48:03.270Z,11.61
2019-05-09T01:50:29.215Z,11.71
2019-05-09T01:52:55.336Z,11.50
2019-05-09T01:55:23.475Z,11.37
2019-05-09T01:57:49.540Z,11.43
2019-05-09T02:00:16.227Z,11.42
2019-05-09T02:02:43.331Z,11.28
2019-05-09T02:05:09.778Z,11.20
2019-05-09T02:07:35.914Z,11.39
2019-05-09T02:10:04.021Z,11.35
2019-05-09T02:12:30.036Z,11.30
2019-05-09T02:14:56.135Z,11.16
2019-05-09T02:17:23.249Z,11.09
2019-05-09T02:19:49.404Z,10.92
2019-05-09T02:22:15.364Z,11.18
2019-05-09T02:24:41.270Z,11.15
2019-05-09T02:27:07.180Z,11.13
2019-05-09T02:29:33.834Z,11.07
2019-05-09T02:31:59.861Z,11.09
2019-05-09T02:34:25.821Z,11.15
2019-05-09T02:36:51.766Z,11.00
2019-05-09T02:39:18.831Z,11.05
2019-05-09T02:42:01.198Z,11.13
2019-05-09T02:44:13.384Z,10.95
2019-05-09T02:46:39.334Z,10.79
2019-05-09T02:49:08.564Z,10.64
2019-05-09T02:51:33.271Z,10.59
2019-05-09T02:53:59.172Z,10.53
2019-05-09T02:56:25.223Z,10.50
2019-05-09T02:58:51.328Z,10.45
2019-05-09T03:01:18.961Z,10.47
2019-05-09T03:03:48.054Z,10.51
2019-05-09T03:06:13.082Z,10.54
2019-05-09T03:08:39.190Z,10.44
2019-05-09T03:11:05.283Z,10.53
2019-05-09T03:13:31.560Z,10.73
2019-05-09T03:15:58.651Z,10.83
2019-05-09T03:18:24.834Z,10.86
2019-05-09T03:20:50.793Z,10.88
2019-05-09T03:23:19.166Z,11.18
2019-05-09T03:25:48.251Z,11.15
2019-05-09T03:28:13.057Z,11.15
2019-05-09T03:30:40.049Z,11.01
2019-05-09T03:33:09.933Z,10.88
2019-05-09T03:35:34.030Z,10.85
2019-05-09T03:37:59.958Z,10.71
2019-05-09T03:40:27.229Z,10.84
2019-05-09T03:42:53.325Z,10.89
2019-05-09T03:45:19.431Z,10.94
2019-05-09T03:47:45.372Z,10.88
2019-05-09T03:50:11.324Z,10.91
2019-05-09T03:52:37.532Z,10.84
2019-05-09T03:55:07.326Z,10.81
2019-05-09T03:57:33.320Z,10.83
2019-05-09T03:59:59.273Z,10.88
2019-05-09T04:02:25.333Z,10.88
2019-05-09T04:04:51.241Z,10.99
2019-05-09T04:07:18.667Z,10.94
2019-05-09T04:09:44.702Z,10.95
2019-05-09T04:12:10.615Z,11.01
2019-05-09T04:14:37.554Z,10.96
2019-05-09T04:17:03.827Z,10.96
2019-05-09T04:19:31.394Z,10.98
2019-05-09T04:21:57.754Z,11.03
2019-05-09T04:24:23.829Z,11.27
2019-05-09T04:26:49.930Z,11.14
2019-05-09T04:29:18.211Z,11.13
2019-05-09T04:31:43.730Z,11.17
2019-05-09T04:34:09.964Z,11.29
2019-05-09T04:36:37.783Z,11.31
2019-05-09T04:39:07.661Z,11.27
2019-05-09T04:41:33.585Z,11.27
2019-05-09T04:43:59.549Z,11.22
2019-05-09T04:46:27.695Z,11.51
2019-05-09T04:48:54.184Z,12.45
2019-05-09T04:51:21.420Z,13.57
2019-05-09T04:53:48.093Z,13.78
2019-05-09T04:56:14.053Z,13.79
2019-05-09T04:58:40.102Z,13.30
2019-05-09T05:01:07.310Z,12.96
2019-05-09T05:03:33.565Z,12.80
2019-05-09T05:05:59.490Z,13.26
2019-05-09T05:08:25.525Z,13.26
2019-05-09T05:10:51.583Z,13.62
2019-05-09T05:13:26.266Z,14.56
2019-05-09T05:15:47.498Z,14.71
2019-05-09T05:18:13.338Z,14.19
2019-05-09T05:20:39.332Z,13.45
2019-05-09T05:23:08.247Z,13.18
2019-05-09T05:25:34.507Z,12.91
2019-05-09T05:28:00.928Z,12.53
2019-05-09T05:30:28.393Z,12.37
2019-05-09T05:32:54.529Z,12.49
2019-05-09T05:35:20.632Z,12.66
2019-05-09T05:37:49.510Z,12.75
2019-05-09T05:40:17.819Z,12.66
2019-05-09T05:42:43.889Z,12.57
2019-05-09T05:45:09.994Z,12.75
2019-05-09T05:47:37.943Z,13.00
2019-05-09T05:50:04.170Z,12.91
2019-05-09T05:52:30.147Z,13.03
2019-05-09T05:54:58.071Z,12.89
2019-05-09T05:57:23.953Z,12.63
2019-05-09T05:59:49.918Z,12.53
2019-05-09T06:02:17.814Z,12.54
2019-05-09T06:04:43.963Z,12.71
2019-05-09T06:07:10.093Z,12.79
2019-05-09T06:09:38.103Z,12.78
2019-05-09T06:12:04.422Z,12.87
2019-05-09T06:14:30.600Z,12.77
2019-05-09T06:16:58.763Z,12.83
2019-05-09T06:19:24.697Z,12.94
2019-05-09T06:21:52.396Z,12.97
2019-05-09T06:24:18.655Z,12.89
2019-05-09T06:26:44.722Z,13.06
2019-05-09T06:29:10.666Z,13.05
2019-05-09T06:31:37.613Z,13.28
2019-05-09T06:34:03.984Z,14.22
2019-05-09T06:36:29.946Z,15.69
2019-05-09T06:38:58.559Z,16.31
2019-05-09T06:41:23.853Z,16.00
2019-05-09T06:43:51.860Z,15.58
2019-05-09T06:46:18.341Z,15.12
2019-05-09T06:48:44.632Z,15.11
2019-05-09T06:51:10.887Z,14.73
2019-05-09T06:53:38.072Z,14.41
2019-05-09T06:56:04.791Z,14.11
2019-05-09T06:58:30.953Z,14.10
2019-05-09T07:00:58.444Z,14.15
2019-05-09T07:03:24.470Z,14.09
2019-05-09T07:05:50.374Z,13.98
2019-05-09T07:08:18.336Z,14.05
2019-05-09T07:10:44.333Z,13.89
2019-05-09T07:13:10.283Z,13.81
2019-05-09T07:15:37.652Z,13.77
2019-05-09T07:18:03.786Z,13.79
2019-05-09T07:20:29.752Z,13.76
2019-05-09T07:22:58.058Z,14.08
2019-05-09T07:25:23.780Z,14.03
2019-05-09T07:27:49.707Z,14.37
2019-05-09T07:30:17.992Z,14.37
2019-05-09T07:32:44.071Z,14.55
2019-05-09T07:35:10.149Z,14.47
2019-05-09T07:37:37.971Z,14.47
2019-05-09T07:40:05.665Z,14.49
2019-05-09T07:42:31.594Z,14.64
2019-05-09T07:44:59.108Z,14.34
2019-05-09T07:47:28.098Z,14.48
2019-05-09T07:49:53.843Z,14.48
2019-05-09T07:52:19.759Z,14.38
2019-05-09T07:54:48.179Z,14.47
2019-05-09T07:57:13.886Z,14.56
2019-05-09T07:59:39.798Z,14.57
2019-05-09T08:02:05.737Z,14.56
2019-05-09T08:04:31.642Z,14.93
2019-05-09T08:06:57.977Z,15.28
2019-05-09T08:09:25.079Z,15.78
2019-05-09T08:11:51.021Z,16.12
2019-05-09T08:14:17.719Z,16.48
2019-05-09T08:16:47.365Z,16.58
2019-05-09T08:19:12.894Z,16.78
2019-05-09T08:21:38.838Z,17.17
2019-05-09T08:24:04.754Z,17.46
2019-05-09T08:26:30.689Z,17.61
2019-05-09T08:28:58.422Z,17.81
2019-05-09T08:31:24.463Z,17.50
2019-05-09T08:33:50.371Z,17.15
2019-05-09T08:36:19.822Z,17.04
2019-05-09T08:38:47.611Z,16.68
2019-05-09T08:41:13.209Z,16.48
2019-05-09T08:43:41.162Z,16.65
2019-05-09T08:46:07.967Z,16.55
2019-05-09T08:48:34.397Z,17.10
2019-05-09T08:51:00.409Z,17.35
2019-05-09T08:53:27.603Z,17.40
2019-05-09T08:55:53.775Z,17.36
2019-05-09T08:58:20.210Z,17.80
2019-05-09T09:00:48.398Z,18.18
2019-05-09T09:03:14.240Z,18.31
2019-05-09T09:05:43.264Z,18.62
2019-05-09T09:08:09.363Z,18.79
2019-05-09T09:10:38.060Z,18.85
2019-05-09T09:13:03.414Z,18.96
2019-05-09T09:15:56.138Z,19.24
2019-05-09T09:17:57.853Z,19.06
2019-05-09T09:20:24.066Z,19.18
2019-05-09T09:22:50.103Z,19.29
2019-05-09T09:25:18.334Z,16.70
2019-05-09T09:27:47.527Z,19.18
2019-05-09T09:30:20.226Z,19.21
2019-05-09T09:32:39.847Z,18.90
2019-05-09T09:35:08.014Z,18.70
2019-05-09T09:37:47.839Z,18.21
2019-05-09T09:40:04.759Z,17.93
2019-05-09T09:42:30.699Z,17.98
2019-05-09T09:44:58.565Z,17.82
2019-05-09T09:47:24.544Z,17.83
2019-05-09T09:49:50.446Z,18.51
2019-05-09T09:52:18.750Z,18.43
2019-05-09T09:54:44.576Z,18.34
2019-05-09T09:57:10.518Z,18.33
2019-05-09T09:59:40.183Z,18.10
2019-05-09T10:02:04.575Z,18.20
2019-05-09T10:04:30.607Z,18.28
2019-05-09T10:06:58.326Z,18.23
2019-05-09T10:09:24.370Z,18.01
2019-05-09T10:11:50.417Z,18.01
2019-05-09T10:14:18.520Z,17.85
2019-05-09T10:16:44.352Z,17.73
2019-05-09T10:19:10.254Z,17.92
2019-05-09T10:21:38.201Z,18.04
2019-05-09T10:24:04.123Z,18.18
2019-05-09T10:26:30.316Z,18.26
2019-05-09T10:28:56.223Z,18.19
2019-05-09T10:31:22.162Z,18.63
2019-05-09T10:33:48.401Z,19.06
2019-05-09T10:36:14.729Z,19.54
2019-05-09T10:38:40.703Z,19.80
2019-05-09T10:41:10.979Z,19.90
2019-05-09T10:43:38.812Z,19.62
2019-05-09T10:46:03.169Z,18.99
2019-05-09T10:48:29.332Z,18.91
2019-05-09T10:51:03.520Z,18.78
2019-05-09T10:53:23.520Z,18.24
2019-05-09T10:55:49.599Z,18.48
2019-05-09T10:58:15.734Z,18.33
2019-05-09T11:00:41.857Z,18.22
2019-05-09T11:03:08.783Z,18.21
2019-05-09T11:05:35.122Z,18.51
2019-05-09T11:08:01.196Z,18.93
2019-05-09T11:10:40.806Z,19.30
2019-05-09T11:13:09.656Z,19.35
2019-05-09T11:15:37.528Z,19.33
2019-05-09T11:18:03.793Z,19.04
2019-05-09T11:20:30.020Z,18.84
2019-05-09T11:22:58.184Z,18.71
2019-05-09T11:25:24.109Z,18.78
2019-05-09T11:28:06.978Z,18.85
2019-05-09T11:30:18.576Z,18.85
2019-05-09T11:32:44.616Z,18.71
2019-05-09T11:35:10.823Z,18.33
2019-05-09T11:37:40.635Z,18.12
2019-05-09T11:40:08.527Z,17.72
2019-05-09T11:42:35.109Z,17.83
2019-05-09T11:45:09.191Z,17.60
2019-05-09T11:47:44.761Z,17.56
2019-05-09T11:50:08.764Z,17.44
2019-05-09T11:52:38.296Z,16.96
2019-05-09T11:55:28.875Z,17.00
2019-05-09T11:57:40.068Z,17.29
2019-05-09T12:00:08.276Z,17.31
2019-05-09T12:02:34.859Z,17.48
2019-05-09T12:05:00.906Z,17.67
2019-05-09T12:07:28.812Z,17.51
2019-05-09T12:09:54.865Z,17.41
2019-05-09T12:12:20.899Z,17.36
2019-05-09T12:14:48.368Z,17.57
2019-05-09T12:17:14.749Z,17.36
2019-05-09T12:19:40.667Z,17.15
2019-05-09T12:22:08.930Z,17.34
2019-05-09T12:24:34.684Z,17.73
2019-05-09T12:27:03.037Z,17.98
2019-05-09T12:29:28.896Z,18.16
2019-05-09T12:31:54.805Z,18.33
2019-05-09T12:34:20.873Z,18.36
2019-05-09T12:36:49.291Z,18.52
2019-05-09T12:39:14.626Z,18.44
2019-05-09T12:41:40.642Z,18.72
2019-05-09T12:44:08.860Z,18.98
2019-05-09T12:46:34.569Z,18.96
2019-05-09T12:49:00.478Z,18.49
2019-05-09T12:51:28.190Z,17.64
2019-05-09T12:53:54.351Z,18.57
2019-05-09T12:56:20.374Z,18.32
2019-05-09T12:58:47.734Z,18.20
2019-05-09T13:01:17.998Z,17.91
2019-05-09T13:03:43.989Z,17.60
2019-05-09T13:06:10.142Z,17.44
2019-05-09T13:08:38.335Z,17.22
2019-05-09T13:11:03.942Z,17.10
2019-05-09T13:13:32.169Z,17.36
2019-05-09T13:15:58.241Z,17.61
2019-05-09T13:18:25.476Z,17.89
2019-05-09T13:20:52.139Z,18.30
2019-05-09T13:23:18.460Z,18.74
2019-05-09T13:25:44.392Z,18.55
2019-05-09T13:28:10.522Z,18.36
2019-05-09T13:30:38.032Z,18.30
2019-05-09T13:33:07.261Z,18.13
2019-05-09T13:35:31.991Z,18.10
2019-05-09T13:37:59.669Z,17.97
2019-05-09T13:40:29.065Z,17.81
2019-05-09T13:42:53.710Z,17.66
2019-05-09T13:45:19.846Z,17.87
2019-05-09T13:47:47.755Z,17.92
2019-05-09T13:50:13.699Z,17.79
2019-05-09T13:52:39.648Z,17.90
2019-05-09T13:55:08.493Z,17.93
2019-05-09T13:57:34.323Z,17.77
2019-05-09T14:00:00.410Z,17.35
2019-05-09T14:02:28.555Z,17.11
2019-05-09T14:04:54.217Z,16.84
2019-05-09T14:07:20.159Z,16.84
2019-05-09T14:09:48.374Z,16.81
2019-05-09T14:12:14.102Z,16.94
2019-05-09T14:14:40.120Z,16.79
2019-05-09T14:17:08.533Z,16.43
2019-05-09T14:19:43.609Z,16.41
2019-05-09T14:22:02.725Z,16.46
2019-05-09T14:24:30.890Z,16.87
2019-05-09T14:26:58.238Z,17.17
2019-05-09T14:29:24.344Z,17.10
2019-05-09T14:31:50.437Z,16.92
2019-05-09T14:34:19.387Z,16.67
2019-05-09T14:36:45.717Z,16.71
2019-05-09T14:39:12.145Z,16.43
2019-05-09T14:41:39.156Z,16.37
2019-05-09T14:44:05.425Z,16.37
2019-05-09T14:46:31.495Z,16.44
2019-05-09T14:48:58.407Z,16.49
2019-05-09T14:51:24.630Z,16.74
2019-05-09T14:53:50.615Z,16.66
2019-05-09T14:56:16.532Z,16.63
2019-05-09T14:58:42.521Z,16.86
2019-05-09T15:01:09.655Z,16.80
2019-05-09T15:03:35.566Z,16.94
2019-05-09T15:06:02.863Z,16.77
2019-05-09T15:08:28.930Z,17.00
2019-05-09T15:10:55.115Z,17.08
2019-05-09T15:13:21.340Z,16.98
2019-05-09T15:15:48.086Z,17.22
2019-05-09T15:18:14.209Z,17.05
2019-05-09T15:20:40.320Z,17.03
2019-05-09T15:23:08.453Z,17.17
2019-05-09T15:25:34.122Z,17.21
2019-05-09T15:28:00.440Z,17.01
2019-05-09T15:30:28.672Z,17.16
2019-05-09T15:32:54.732Z,16.97
2019-05-09T15:35:21.875Z,16.81
2019-05-09T15:37:48.203Z,16.78
2019-05-09T15:40:14.607Z,16.72
2019-05-09T15:42:40.619Z,16.98
2019-05-09T15:45:07.805Z,17.07
2019-05-09T15:47:34.137Z,17.23
2019-05-09T15:50:15.536Z,17.18
2019-05-09T15:52:28.660Z,17.27
2019-05-09T15:54:54.832Z,17.25
2019-05-09T15:57:20.855Z,16.97
2019-05-09T15:59:47.939Z,17.14
2019-05-09T16:02:14.114Z,17.14
2019-05-09T16:04:40.514Z,17.09
2019-05-09T16:07:06.929Z,17.05
2019-05-09T16:09:32.830Z,16.97
2019-05-09T16:11:58.765Z,16.99
2019-05-09T16:14:24.815Z,16.77
2019-05-09T16:16:50.783Z,16.51
2019-05-09T16:19:16.777Z,16.34
2019-05-09T16:21:42.760Z,16.39
2019-05-09T16:24:08.904Z,16.32
2019-05-09T16:26:35.028Z,16.22
2019-05-09T16:29:01.338Z,16.30
2019-05-09T16:31:38.410Z,16.28
2019-05-09T16:34:05.628Z,16.26
2019-05-09T16:36:31.631Z,16.27
2019-05-09T16:38:58.474Z,16.22
2019-05-09T16:41:24.767Z,16.12
2019-05-09T16:43:50.783Z,16.06
2019-05-09T16:46:18.106Z,16.03
2019-05-09T16:48:44.326Z,15.90
2019-05-09T16:51:11.337Z,15.84
2019-05-09T16:53:37.278Z,15.83
2019-05-09T16:56:04.323Z,15.82
2019-05-09T16:58:30.280Z,15.81
2019-05-09T17:00:56.903Z,15.73
2019-05-09T17:03:22.842Z,15.68
2019-05-09T17:05:48.849Z,15.61
2019-05-09T17:08:17.590Z,15.52
2019-05-09T17:10:43.004Z,15.68
2019-05-09T17:13:09.318Z,15.76
2019-05-09T17:15:35.513Z,15.77
2019-05-09T17:18:02.882Z,15.88
2019-05-09T17:20:28.852Z,15.70
2019-05-09T17:23:09.987Z,15.57
2019-05-09T17:25:22.641Z,15.46
2019-05-09T17:27:48.779Z,15.32
2019-05-09T17:30:15.138Z,15.31
2019-05-09T17:32:41.149Z,15.28
2019-05-09T17:35:07.536Z,15.31
2019-05-09T17:37:33.538Z,15.36
2019-05-09T17:40:00.616Z,15.61
2019-05-09T17:42:27.709Z,15.79
2019-05-09T17:44:53.840Z,15.90
2019-05-09T17:47:19.942Z,15.90
2019-05-09T17:49:48.079Z,15.76
2019-05-09T17:52:13.801Z,15.78
2019-05-09T17:54:39.741Z,15.68
2019-05-09T17:57:07.946Z,15.61
2019-05-09T17:59:34.143Z,15.44
2019-05-09T18:02:00.083Z,15.38
2019-05-09T18:04:28.587Z,15.35
2019-05-09T18:06:54.238Z,15.10
2019-05-09T18:09:20.243Z,14.95
2019-05-09T18:11:48.155Z,14.88
2019-05-09T18:14:14.119Z,14.93
2019-05-09T18:16:40.178Z,14.79
2019-05-09T18:19:08.566Z,14.87
2019-05-09T18:21:49.599Z,14.74
2019-05-09T18:24:02.960Z,14.56
2019-05-09T18:26:29.846Z,14.46
2019-05-09T18:28:59.454Z,14.46
2019-05-09T18:31:23.921Z,14.41
2019-05-09T18:33:50.109Z,14.36
2019-05-09T18:36:16.179Z,14.44
2019-05-09T18:38:42.137Z,14.48
2019-05-09T18:41:10.249Z,14.29
2019-05-09T18:43:36.398Z,14.22
2019-05-09T18:46:02.509Z,14.22
2019-05-09T18:48:28.573Z,14.37
2019-05-09T18:50:54.598Z,14.23
2019-05-09T18:53:20.628Z,14.01
2019-05-09T18:55:46.835Z,14.01
2019-05-09T18:58:12.797Z,13.92
2019-05-09T19:00:38.876Z,13.92
2019-05-09T19:03:04.999Z,13.91
2019-05-09T19:05:31.153Z,13.81
2019-05-09T19:07:57.485Z,13.80
2019-05-09T19:10:23.929Z,13.73
2019-05-09T19:12:50.091Z,13.65
2019-05-09T19:15:16.751Z,13.70
2019-05-09T19:17:42.776Z,13.70
2019-05-09T19:20:08.987Z,13.59
2019-05-09T19:22:36.025Z,13.59
2019-05-09T19:25:02.164Z,13.58
2019-05-09T19:27:29.537Z,13.57
2019-05-09T19:29:57.438Z,13.53
2019-05-09T19:32:23.459Z,13.50
2019-05-09T19:34:49.367Z,13.50
2019-05-09T19:37:15.460Z,13.46
2019-05-09T19:39:42.451Z,13.46
2019-05-09T19:42:08.359Z,13.41
2019-05-09T19:44:34.311Z,13.40
2019-05-09T19:47:01.610Z,13.42
2019-05-09T19:49:27.965Z,13.41
2019-05-09T19:51:53.867Z,13.39
2019-05-09T19:54:19.973Z,13.37
2019-05-09T19:56:46.185Z,13.35
2019-05-09T19:59:12.165Z,13.34
2019-05-09T20:01:38.299Z,13.30
2019-05-09T20:04:04.519Z,13.29
2019-05-09T20:06:30.645Z,13.32
2019-05-09T20:08:56.691Z,13.30
2019-05-09T20:11:22.704Z,13.27
2019-05-09T20:13:48.986Z,13.29
2019-05-09T20:16:14.944Z,13.20
2019-05-09T20:18:40.880Z,13.25
2019-05-09T20:21:06.985Z,13.26
2019-05-09T20:23:33.179Z,13.25
2019-05-09T20:25:59.273Z,13.35
2019-05-09T20:28:25.493Z,13.37
2019-05-09T20:30:51.931Z,13.49
2019-05-09T20:33:19.099Z,13.39
2019-05-09T20:35:47.244Z,13.49
2019-05-09T20:38:13.895Z,13.62
2019-05-09T20:40:39.977Z,13.69
2019-05-09T20:43:06.039Z,13.60
2019-05-09T20:45:32.187Z,13.52
2019-05-09T20:47:58.292Z,13.48
2019-05-09T20:50:24.372Z,13.47
2019-05-09T20:53:08.647Z,13.70
2019-05-09T20:55:21.340Z,13.65
2019-05-09T20:57:47.434Z,13.52
2019-05-09T21:00:13.714Z,13.41
2019-05-09T21:02:39.765Z,13.29
2019-05-09T21:05:06.246Z,13.34
2019-05-09T21:07:32.234Z,13.36
2019-05-09T21:09:58.241Z,13.32
2019-05-09T21:12:24.456Z,13.22
2019-05-09T21:14:50.383Z,13.18
2019-05-09T21:17:16.392Z,12.89
2019-05-09T21:19:42.469Z,13.14
2019-05-09T21:22:08.511Z,13.06
2019-05-09T21:24:34.451Z,13.02
2019-05-09T21:27:00.423Z,13.18
2019-05-09T21:29:26.333Z,13.18
2019-05-09T21:31:52.359Z,13.02
2019-05-09T21:34:18.463Z,13.02
2019-05-09T21:36:44.470Z,12.94
2019-05-09T21:39:10.504Z,12.90
2019-05-09T21:41:38.922Z,12.86
2019-05-09T21:44:05.026Z,12.78
2019-05-09T21:46:30.971Z,12.70
2019-05-09T21:48:56.907Z,12.72
2019-05-09T21:51:23.806Z,12.68
2019-05-09T21:53:49.755Z,12.66
2019-05-09T21:56:15.647Z,12.63
2019-05-09T21:58:41.587Z,12.58
2019-05-09T22:01:11.376Z,12.54
2019-05-09T22:03:37.877Z,12.53
2019-05-09T22:06:03.977Z,12.53
2019-05-09T22:08:30.020Z,12.62
2019-05-09T22:10:56.133Z,12.58
2019-05-09T22:13:22.275Z,12.53
2019-05-09T22:15:48.177Z,12.59
2019-05-09T22:18:14.560Z,12.55
2019-05-09T22:20:40.751Z,12.46
2019-05-09T22:23:06.846Z,12.46
2019-05-09T22:25:33.152Z,12.50
2019-05-09T22:27:59.052Z,12.53
2019-05-09T22:30:25.168Z,12.38
2019-05-09T22:32:51.118Z,12.38
2019-05-09T22:35:17.385Z,12.56
2019-05-09T22:37:43.639Z,12.81
2019-05-09T22:40:09.844Z,12.75
2019-05-09T22:42:35.779Z,12.63
2019-05-09T22:45:03.442Z,12.46
2019-05-09T22:47:29.379Z,12.45
2019-05-09T22:49:55.285Z,12.39
2019-05-09T22:52:21.503Z,12.28
2019-05-09T22:54:47.633Z,12.26
2019-05-09T22:57:13.560Z,12.23
2019-05-09T22:59:39.492Z,12.12
2019-05-09T23:02:06.997Z,12.06
2019-05-09T23:04:33.042Z,12.05
2019-05-09T23:07:00.075Z,12.19
2019-05-09T23:09:26.018Z,12.21
2019-05-09T23:11:51.913Z,12.15
2019-05-09T23:14:17.859Z,12.24
2019-05-09T23:16:45.055Z,12.25
2019-05-09T23:19:11.267Z,12.17
2019-05-09T23:21:37.235Z,12.15
2019-05-09T23:24:03.431Z,11.99
2019-05-09T23:26:29.340Z,11.85
2019-05-09T23:28:55.458Z,11.92
2019-05-09T23:31:21.590Z,11.90
2019-05-09T23:33:47.656Z,11.89
2019-05-09T23:36:13.550Z,11.87
2019-05-09T23:38:39.863Z,11.96
2019-05-09T23:41:05.765Z,11.92
2019-05-09T23:43:31.708Z,12.05
2019-05-09T23:45:57.614Z,11.99
2019-05-09T23:48:23.730Z,11.99
2019-05-09T23:50:49.635Z,12.01
2019-05-09T23:53:17.694Z,11.99
2019-05-09T23:55:43.774Z,12.00
2019-05-09T23:58:09.718Z,11.98
